createdAt,value
2023-02-19T00:00:21.255Z,37.83
2023-02-19T00:01:25.786Z,33.15
2023-02-19T00:02:28.289Z,36.40
2023-02-19T00:03:30.585Z,31.13
2023-02-19T00:04:32.666Z,36.55
2023-02-19T00:05:35.590Z,34.20
2023-02-19T00:06:37.649Z,34.55
2023-02-19T00:07:39.555Z,33.85
2023-02-19T00:08:41.544Z,33.35
2023-02-19T00:09:43.552Z,31.70
2023-02-19T00:10:45.508Z,35.65
2023-02-19T00:11:48.192Z,33.63
2023-02-19T00:12:50.915Z,33.10
2023-02-19T00:13:55.557Z,35.78
2023-02-19T00:14:58.495Z,32.17
2023-02-19T00:16:09.958Z,34.50
2023-02-19T00:17:11.932Z,33.33
2023-02-19T00:18:13.922Z,33.85
2023-02-19T00:19:18.428Z,30.63
2023-02-19T00:20:20.439Z,32.13
2023-02-19T00:21:23.420Z,30.67
2023-02-19T00:22:25.415Z,32.47
2023-02-19T00:23:28.097Z,34.60
2023-02-19T00:24:30.142Z,31.70
2023-02-19T00:25:32.235Z,35.50
2023-02-19T00:26:35.057Z,31.90
2023-02-19T00:27:37.025Z,33.10
2023-02-19T00:28:39.737Z,32.00
2023-02-19T00:29:41.763Z,35.50
2023-02-19T00:30:43.747Z,29.27
2023-02-19T00:31:46.429Z,32.97
2023-02-19T00:32:52.019Z,33.53
2023-02-19T00:33:57.141Z,36.42
2023-02-19T00:35:00.120Z,33.58
2023-02-19T00:36:03.661Z,33.92
2023-02-19T00:37:05.619Z,34.35
2023-02-19T00:38:07.700Z,35.40
2023-02-19T00:39:14.115Z,35.08
2023-02-19T00:40:16.225Z,35.53
2023-02-19T00:41:20.176Z,34.67
2023-02-19T00:42:22.524Z,37.10
2023-02-19T00:43:24.585Z,36.72
2023-02-19T00:44:26.587Z,36.22
2023-02-19T00:45:28.696Z,38.05
2023-02-19T00:46:36.514Z,34.08
2023-02-19T00:47:38.682Z,34.85
2023-02-19T00:48:42.579Z,36.65
2023-02-19T00:49:44.567Z,31.52
2023-02-19T00:50:46.534Z,36.22
2023-02-19T00:51:50.619Z,33.43
2023-02-19T00:52:52.669Z,33.53
2023-02-19T00:53:55.010Z,30.15
2023-02-19T00:54:56.959Z,31.15
2023-02-19T00:55:59.051Z,33.70
2023-02-19T00:57:01.124Z,32.55
2023-02-19T00:58:03.330Z,32.60
2023-02-19T00:59:05.600Z,33.17
2023-02-19T01:00:08.239Z,30.85
2023-02-19T01:01:10.954Z,32.88
2023-02-19T01:02:13.197Z,33.60
2023-02-19T01:03:15.222Z,34.90
2023-02-19T01:04:17.512Z,32.17
2023-02-19T01:05:19.635Z,32.20
2023-02-19T01:06:21.818Z,38.42
2023-02-19T01:07:24.363Z,38.22
2023-02-19T01:08:27.443Z,36.08
2023-02-19T01:09:29.497Z,39.80
2023-02-19T01:10:31.774Z,38.30
2023-02-19T01:11:34.008Z,37.15
2023-02-19T01:12:36.071Z,35.97
2023-02-19T01:13:38.601Z,33.85
2023-02-19T01:14:40.578Z,36.28
2023-02-19T01:15:43.045Z,33.65
2023-02-19T01:16:45.099Z,37.33
2023-02-19T01:17:47.325Z,39.80
2023-02-19T01:18:49.478Z,34.45
2023-02-19T01:19:53.519Z,37.97
2023-02-19T01:20:55.516Z,34.47
2023-02-19T01:21:57.632Z,39.13
2023-02-19T01:22:59.610Z,39.27
2023-02-19T01:24:01.578Z,39.78
2023-02-19T01:25:03.687Z,36.78
2023-02-19T01:26:07.593Z,36.53
2023-02-19T01:27:09.572Z,36.67
2023-02-19T01:28:11.781Z,36.88
2023-02-19T01:29:13.853Z,36.50
2023-02-19T01:30:16.181Z,35.30
2023-02-19T01:31:22.236Z,35.30
2023-02-19T01:32:24.279Z,38.67
2023-02-19T01:33:26.326Z,36.17
2023-02-19T01:34:30.586Z,37.20
2023-02-19T01:35:32.688Z,36.25
2023-02-19T01:36:35.275Z,38.05
2023-02-19T01:37:37.450Z,36.40
2023-02-19T01:38:39.419Z,34.40
2023-02-19T01:39:41.459Z,34.58
2023-02-19T01:40:43.452Z,36.25
2023-02-19T01:41:45.490Z,37.25
2023-02-19T01:42:47.737Z,36.35
2023-02-19T01:44:12.490Z,40.27
2023-02-19T01:45:27.264Z,34.53
2023-02-19T01:46:34.358Z,36.53
2023-02-19T01:47:36.463Z,35.28
2023-02-19T01:48:39.866Z,35.10
2023-02-19T01:49:48.740Z,35.28
2023-02-19T01:51:03.026Z,40.45
2023-02-19T01:52:17.944Z,35.08
2023-02-19T01:53:25.249Z,34.75
2023-02-19T01:54:31.704Z,37.83
2023-02-19T01:55:34.946Z,36.47
2023-02-19T01:56:39.985Z,38.55
2023-02-19T01:57:48.596Z,33.95
2023-02-19T01:58:52.406Z,38.58
2023-02-19T02:00:01.910Z,34.63
2023-02-19T02:01:14.640Z,34.67
2023-02-19T02:02:16.849Z,34.83
2023-02-19T02:03:19.672Z,35.63
2023-02-19T02:04:21.757Z,33.03
2023-02-19T02:05:42.383Z,36.97
2023-02-19T02:06:50.129Z,36.70
2023-02-19T02:08:12.389Z,35.28
2023-02-19T02:09:33.683Z,34.05
2023-02-19T02:10:35.722Z,35.78
2023-02-19T02:11:40.858Z,37.67
2023-02-19T02:12:42.944Z,35.10
2023-02-19T02:13:44.984Z,34.92
2023-02-19T02:14:48.306Z,35.67
2023-02-19T02:16:00.110Z,37.25
2023-02-19T02:17:25.922Z,37.67
2023-02-19T02:18:28.036Z,36.93
2023-02-19T02:20:16.208Z,40.63
2023-02-19T02:21:49.073Z,40.17
2023-02-19T02:23:00.194Z,49.40
2023-02-19T02:24:11.116Z,41.05
2023-02-19T02:25:18.888Z,40.63
2023-02-19T02:26:41.771Z,39.15
2023-02-19T02:28:00.704Z,36.55
2023-02-19T02:29:25.988Z,38.03
2023-02-19T02:30:54.147Z,35.00
2023-02-19T02:32:11.151Z,37.50
2023-02-19T02:33:33.290Z,34.83
2023-02-19T02:34:54.088Z,34.92
2023-02-19T02:36:07.325Z,39.53
2023-02-19T02:37:11.234Z,38.95
2023-02-19T02:38:15.457Z,36.20
2023-02-19T02:39:21.280Z,34.50
2023-02-19T02:40:24.164Z,39.60
2023-02-19T02:41:26.630Z,35.80
2023-02-19T02:42:28.787Z,38.67
2023-02-19T02:43:37.324Z,33.50
2023-02-19T02:44:40.943Z,35.50
2023-02-19T02:45:43.145Z,37.67
2023-02-19T02:46:58.112Z,36.42
2023-02-19T02:48:03.197Z,34.67
2023-02-19T02:49:10.185Z,39.13
2023-02-19T02:50:32.804Z,38.05
2023-02-19T02:51:56.500Z,38.25
2023-02-19T02:53:26.252Z,37.90
2023-02-19T02:54:51.008Z,38.53
2023-02-19T02:55:55.726Z,35.53
2023-02-19T02:56:59.419Z,38.22
2023-02-19T02:58:05.037Z,37.70
2023-02-19T02:59:10.278Z,39.17
2023-02-19T03:00:14.801Z,39.10
2023-02-19T03:01:41.760Z,35.40
2023-02-19T03:02:44.554Z,37.78
2023-02-19T03:03:50.973Z,39.95
2023-02-19T03:05:33.229Z,38.60
2023-02-19T03:06:37.159Z,35.45
2023-02-19T03:07:47.386Z,36.17
2023-02-19T03:09:08.633Z,38.53
2023-02-19T03:10:14.566Z,38.20
2023-02-19T03:11:35.685Z,37.25
2023-02-19T03:12:59.133Z,36.22
2023-02-19T03:14:42.063Z,38.67
2023-02-19T03:16:19.836Z,37.65
2023-02-19T03:18:01.496Z,37.80
2023-02-19T03:19:20.501Z,39.33
2023-02-19T03:20:25.742Z,41.65
2023-02-19T03:21:29.150Z,39.57
2023-02-19T03:22:36.512Z,38.47
2023-02-19T03:23:57.097Z,39.97
2023-02-19T03:25:32.092Z,41.05
2023-02-19T03:26:36.371Z,38.85
2023-02-19T03:27:40.955Z,40.38
2023-02-19T03:29:04.022Z,39.13
2023-02-19T03:30:17.760Z,38.33
2023-02-19T03:31:23.950Z,37.97
2023-02-19T03:32:38.965Z,40.08
2023-02-19T03:33:45.798Z,42.53
2023-02-19T03:35:18.353Z,39.72
2023-02-19T03:36:27.631Z,42.67
2023-02-19T03:38:02.594Z,42.35
2023-02-19T03:39:09.014Z,41.28
2023-02-19T03:40:13.952Z,37.58
2023-02-19T03:41:55.751Z,37.08
2023-02-19T03:43:00.841Z,37.58
2023-02-19T03:44:35.716Z,41.35
2023-02-19T03:46:06.875Z,39.53
2023-02-19T03:47:17.602Z,37.83
2023-02-19T03:48:31.496Z,38.10
2023-02-19T03:49:51.925Z,40.33
2023-02-19T03:51:04.996Z,37.55
2023-02-19T03:52:21.779Z,40.63
2023-02-19T03:53:28.214Z,41.00
2023-02-19T03:54:42.238Z,38.63
2023-02-19T03:55:58.661Z,37.15
2023-02-19T03:57:12.947Z,39.35
2023-02-19T03:58:26.106Z,39.13
2023-02-19T03:59:36.214Z,36.20
2023-02-19T04:00:45.005Z,40.70
2023-02-19T04:02:13.689Z,39.20
2023-02-19T04:03:43.379Z,36.65
2023-02-19T04:04:53.265Z,39.08
2023-02-19T04:06:01.951Z,33.80
2023-02-19T04:07:04.249Z,37.67
2023-02-19T04:08:21.166Z,35.25
2023-02-19T04:09:36.091Z,38.90
2023-02-19T04:10:45.490Z,40.55
2023-02-19T04:11:50.630Z,36.87
2023-02-19T04:13:05.841Z,38.78
2023-02-19T04:14:20.980Z,38.50
2023-02-19T04:15:29.320Z,37.40
2023-02-19T04:16:34.783Z,36.45
2023-02-19T04:17:43.786Z,35.58
2023-02-19T04:18:49.523Z,36.88
2023-02-19T04:19:54.559Z,38.53
2023-02-19T04:20:57.776Z,36.22
2023-02-19T04:22:01.587Z,39.33
2023-02-19T04:23:03.858Z,36.63
2023-02-19T04:24:18.540Z,36.78
2023-02-19T04:25:22.488Z,38.53
2023-02-19T04:26:24.566Z,38.13
2023-02-19T04:27:26.846Z,40.45
2023-02-19T04:28:29.448Z,38.17
2023-02-19T04:29:31.675Z,38.25
2023-02-19T04:30:33.776Z,41.17
2023-02-19T04:31:36.607Z,43.45
2023-02-19T04:32:38.850Z,40.17
2023-02-19T04:33:40.843Z,39.00
2023-02-19T04:34:42.879Z,38.97
2023-02-19T04:35:45.088Z,40.05
2023-02-19T04:36:47.197Z,38.67
2023-02-19T04:37:49.232Z,36.38
2023-02-19T04:38:51.245Z,38.55
2023-02-19T04:39:53.193Z,36.67
2023-02-19T04:40:55.248Z,36.78
2023-02-19T04:41:57.249Z,36.97
2023-02-19T04:42:59.270Z,39.92
2023-02-19T04:44:01.256Z,38.93
2023-02-19T04:45:03.494Z,39.22
2023-02-19T04:46:05.584Z,40.17
2023-02-19T04:47:07.635Z,38.10
2023-02-19T04:48:09.787Z,39.75
2023-02-19T04:49:11.832Z,38.78
2023-02-19T04:50:13.936Z,40.28
2023-02-19T04:51:17.142Z,39.55
2023-02-19T04:52:19.208Z,37.63
2023-02-19T04:53:21.291Z,39.90
2023-02-19T04:54:23.367Z,38.33
2023-02-19T04:55:25.375Z,38.15
2023-02-19T04:56:27.611Z,38.35
2023-02-19T04:57:29.627Z,37.75
2023-02-19T04:58:31.975Z,34.08
2023-02-19T04:59:34.460Z,39.38
2023-02-19T05:00:36.573Z,37.65
2023-02-19T05:01:38.527Z,36.08
2023-02-19T05:02:40.707Z,36.15
2023-02-19T05:03:42.966Z,35.40
2023-02-19T05:04:45.005Z,37.50
2023-02-19T05:05:47.082Z,37.30
2023-02-19T05:06:49.080Z,36.97
2023-02-19T05:07:51.077Z,39.05
2023-02-19T05:08:53.235Z,38.50
2023-02-19T05:09:55.341Z,40.75
2023-02-19T05:11:05.982Z,37.85
2023-02-19T05:12:08.019Z,43.10
2023-02-19T05:13:10.052Z,40.30
2023-02-19T05:14:12.107Z,40.67
2023-02-19T05:15:14.066Z,41.03
2023-02-19T05:16:17.166Z,38.67
2023-02-19T05:17:19.199Z,39.15
2023-02-19T05:18:21.148Z,42.75
2023-02-19T05:19:23.199Z,36.30
2023-02-19T05:20:25.281Z,36.67
2023-02-19T05:21:27.486Z,41.63
2023-02-19T05:22:30.373Z,36.38
2023-02-19T05:23:32.476Z,37.97
2023-02-19T05:24:34.464Z,37.67
2023-02-19T05:25:36.506Z,38.03
2023-02-19T05:26:38.498Z,38.17
2023-02-19T05:27:40.608Z,37.90
2023-02-19T05:28:42.596Z,36.00
2023-02-19T05:29:44.645Z,40.55
2023-02-19T05:30:52.163Z,36.55
2023-02-19T05:31:54.367Z,37.17
2023-02-19T05:32:56.569Z,38.47
2023-02-19T05:33:58.664Z,36.53
2023-02-19T05:35:00.674Z,38.78
2023-02-19T05:36:07.297Z,38.53
2023-02-19T05:37:09.412Z,40.80
2023-02-19T05:38:11.901Z,40.38
2023-02-19T05:39:14.031Z,40.10
2023-02-19T05:40:16.106Z,40.97
2023-02-19T05:41:21.383Z,40.08
2023-02-19T05:42:23.430Z,40.72
2023-02-19T05:43:25.439Z,42.85
2023-02-19T05:44:27.525Z,38.90
2023-02-19T05:45:29.628Z,41.15
2023-02-19T05:46:31.985Z,41.20
2023-02-19T05:47:33.956Z,42.58
2023-02-19T05:48:36.118Z,42.33
2023-02-19T05:49:38.266Z,41.58
2023-02-19T05:50:40.302Z,41.10
2023-02-19T05:51:51.068Z,41.60
2023-02-19T05:52:53.292Z,38.90
2023-02-19T05:53:56.647Z,41.15
2023-02-19T05:54:58.679Z,39.60
2023-02-19T05:56:00.968Z,40.35
2023-02-19T05:57:03.016Z,38.93
2023-02-19T05:58:05.608Z,38.78
2023-02-19T05:59:17.811Z,40.95
2023-02-19T06:00:20.688Z,39.92
2023-02-19T06:01:26.198Z,39.20
2023-02-19T06:02:28.187Z,41.65
2023-02-19T06:03:30.342Z,41.38
2023-02-19T06:04:32.355Z,43.63
2023-02-19T06:05:34.458Z,41.78
2023-02-19T06:06:37.381Z,44.88
2023-02-19T06:07:39.643Z,50.17
2023-02-19T06:08:42.021Z,44.92
2023-02-19T06:09:44.018Z,44.55
2023-02-19T06:10:46.034Z,45.33
2023-02-19T06:11:48.053Z,44.50
2023-02-19T06:12:53.575Z,43.75
2023-02-19T06:13:55.564Z,43.60
2023-02-19T06:14:57.603Z,43.33
2023-02-19T06:15:59.614Z,43.05
2023-02-19T06:17:01.680Z,46.00
2023-02-19T06:18:03.971Z,44.00
2023-02-19T06:19:05.997Z,41.28
2023-02-19T06:20:08.457Z,41.55
2023-02-19T06:21:12.077Z,40.10
2023-02-19T06:22:16.050Z,41.58
2023-02-19T06:23:18.057Z,41.30
2023-02-19T06:24:20.166Z,41.40
2023-02-19T06:25:22.140Z,43.92
2023-02-19T06:26:25.651Z,41.03
2023-02-19T06:27:28.246Z,38.88
2023-02-19T06:28:30.218Z,42.63
2023-02-19T06:29:32.978Z,42.40
2023-02-19T06:30:35.135Z,47.05
2023-02-19T06:31:37.294Z,44.45
2023-02-19T06:32:39.351Z,44.78
2023-02-19T06:33:41.992Z,40.28
2023-02-19T06:34:43.994Z,41.90
2023-02-19T06:35:45.993Z,39.30
2023-02-19T06:36:49.657Z,38.53
2023-02-19T06:37:51.805Z,40.33
2023-02-19T06:38:53.946Z,39.70
2023-02-19T06:39:56.008Z,42.50
2023-02-19T06:41:08.342Z,40.42
2023-02-19T06:42:10.557Z,39.72
2023-02-19T06:43:12.565Z,41.30
2023-02-19T06:44:14.715Z,42.50
2023-02-19T06:45:16.736Z,40.53
2023-02-19T06:46:18.764Z,39.78
2023-02-19T06:47:20.713Z,40.88
2023-02-19T06:48:22.735Z,39.40
2023-02-19T06:49:24.721Z,42.10
2023-02-19T06:50:26.692Z,39.53
2023-02-19T06:51:29.763Z,39.88
2023-02-19T06:52:31.804Z,44.60
2023-02-19T06:53:33.765Z,40.55
2023-02-19T06:54:35.770Z,40.50
2023-02-19T06:55:40.473Z,38.10
2023-02-19T06:56:42.632Z,45.72
2023-02-19T06:57:44.664Z,40.85
2023-02-19T06:58:46.711Z,38.08
2023-02-19T06:59:48.700Z,40.53
2023-02-19T07:00:50.740Z,39.47
2023-02-19T07:01:52.761Z,40.83
2023-02-19T07:02:56.709Z,38.13
2023-02-19T07:03:59.211Z,39.08
2023-02-19T07:05:01.508Z,40.33
2023-02-19T07:06:03.596Z,39.75
2023-02-19T07:07:05.718Z,42.72
2023-02-19T07:08:07.864Z,43.78
2023-02-19T07:09:11.118Z,41.70
2023-02-19T07:10:13.112Z,39.33
2023-02-19T07:11:15.531Z,39.60
2023-02-19T07:12:17.469Z,38.30
2023-02-19T07:13:19.464Z,37.95
2023-02-19T07:14:21.724Z,38.65
2023-02-19T07:15:23.684Z,37.20
2023-02-19T07:16:26.500Z,39.83
2023-02-19T07:17:28.480Z,41.50
2023-02-19T07:18:31.442Z,43.22
2023-02-19T07:19:33.412Z,42.22
2023-02-19T07:20:35.370Z,39.63
2023-02-19T07:21:37.937Z,41.92
2023-02-19T07:22:39.951Z,39.90
2023-02-19T07:23:43.218Z,44.03
2023-02-19T07:24:47.589Z,42.00
2023-02-19T07:25:51.321Z,42.17
2023-02-19T07:26:53.769Z,41.35
2023-02-19T07:27:55.805Z,42.55
2023-02-19T07:28:57.784Z,41.35
2023-02-19T07:29:59.977Z,43.60
2023-02-19T07:31:03.662Z,44.23
2023-02-19T07:32:05.745Z,48.38
2023-02-19T07:33:10.388Z,44.00
2023-02-19T07:34:12.695Z,43.75
2023-02-19T07:35:14.791Z,51.80
2023-02-19T07:36:18.509Z,49.10
2023-02-19T07:37:20.811Z,57.15
2023-02-19T07:38:24.650Z,62.88
2023-02-19T07:39:26.874Z,61.15
2023-02-19T07:40:29.121Z,61.95
2023-02-19T07:41:31.343Z,61.73
2023-02-19T07:42:33.534Z,59.42
2023-02-19T07:43:37.427Z,60.85
2023-02-19T07:44:39.404Z,56.38
2023-02-19T07:45:41.437Z,57.88
2023-02-19T07:46:44.789Z,60.40
2023-02-19T07:47:46.756Z,62.03
2023-02-19T07:48:48.886Z,58.95
2023-02-19T07:49:50.890Z,62.00
2023-02-19T07:50:54.577Z,64.70
2023-02-19T07:51:56.701Z,62.70
2023-02-19T07:52:58.807Z,59.85
2023-02-19T07:54:00.900Z,56.88
2023-02-19T07:55:02.882Z,58.22
2023-02-19T07:56:07.986Z,58.47
2023-02-19T07:57:09.933Z,56.88
2023-02-19T07:58:12.485Z,57.00
2023-02-19T07:59:15.903Z,52.25
2023-02-19T08:00:19.216Z,55.22
2023-02-19T08:01:42.202Z,55.38
2023-02-19T08:03:02.307Z,53.20
2023-02-19T08:04:04.541Z,56.45
2023-02-19T08:05:07.114Z,52.20
2023-02-19T08:06:11.254Z,52.13
2023-02-19T08:07:13.412Z,52.90
2023-02-19T08:08:16.243Z,46.35
2023-02-19T08:09:18.277Z,49.90
2023-02-19T08:10:39.313Z,49.15
2023-02-19T08:12:00.049Z,50.08
2023-02-19T08:13:22.059Z,45.45
2023-02-19T08:14:27.690Z,47.60
2023-02-19T08:15:29.668Z,54.00
2023-02-19T08:16:42.540Z,47.67
2023-02-19T08:17:45.386Z,45.08
2023-02-19T08:18:48.827Z,43.88
2023-02-19T08:19:50.915Z,40.88
2023-02-19T08:20:54.316Z,46.40
2023-02-19T08:21:56.303Z,40.63
2023-02-19T08:22:58.366Z,41.10
2023-02-19T08:24:00.302Z,39.97
2023-02-19T08:25:03.989Z,37.40
2023-02-19T08:26:06.656Z,40.13
2023-02-19T08:27:08.705Z,41.05
2023-02-19T08:28:12.140Z,42.15
2023-02-19T08:29:14.217Z,45.28
2023-02-19T08:30:16.268Z,45.58
2023-02-19T08:31:18.315Z,45.72
2023-02-19T08:32:20.419Z,41.53
2023-02-19T08:33:22.441Z,40.40
2023-02-19T08:34:24.414Z,40.90
2023-02-19T08:35:27.368Z,38.15
2023-02-19T08:36:29.424Z,42.10
2023-02-19T08:37:31.405Z,36.50
2023-02-19T08:38:36.014Z,37.72
2023-02-19T08:39:38.128Z,37.72
2023-02-19T08:40:40.849Z,39.67
2023-02-19T08:41:42.870Z,39.40
2023-02-19T08:42:44.877Z,34.47
2023-02-19T08:43:46.864Z,34.33
2023-02-19T08:44:48.880Z,35.10
2023-02-19T08:45:53.602Z,34.15
2023-02-19T08:46:55.730Z,33.90
2023-02-19T08:47:58.056Z,35.47
2023-02-19T08:49:00.109Z,35.10
2023-02-19T08:50:02.742Z,34.15
2023-02-19T08:51:08.534Z,33.50
2023-02-19T08:52:10.743Z,32.33
2023-02-19T08:53:12.714Z,34.53
2023-02-19T08:54:14.705Z,34.08
2023-02-19T08:55:16.770Z,33.17
2023-02-19T08:56:19.039Z,30.98
2023-02-19T08:57:21.093Z,29.07
2023-02-19T08:58:25.257Z,26.30
2023-02-19T08:59:29.414Z,28.77
2023-02-19T09:00:31.482Z,28.70
2023-02-19T09:01:33.513Z,25.42
2023-02-19T09:02:36.628Z,27.65
2023-02-19T09:03:38.781Z,26.70
2023-02-19T09:04:40.845Z,25.75
2023-02-19T09:05:43.032Z,27.38
2023-02-19T09:06:44.965Z,27.80
2023-02-19T09:07:46.971Z,25.27
2023-02-19T09:08:48.961Z,28.73
2023-02-19T09:09:50.980Z,24.98
2023-02-19T09:11:04.521Z,26.13
2023-02-19T09:12:08.487Z,26.00
2023-02-19T09:13:10.691Z,25.13
2023-02-19T09:14:12.700Z,23.95
2023-02-19T09:15:14.956Z,25.80
2023-02-19T09:16:17.014Z,30.58
2023-02-19T09:17:19.166Z,28.83
2023-02-19T09:18:21.152Z,26.70
2023-02-19T09:19:23.242Z,27.60
2023-02-19T09:20:25.371Z,24.77
2023-02-19T09:21:27.621Z,25.80
2023-02-19T09:22:29.620Z,27.27
2023-02-19T09:23:35.708Z,23.27
2023-02-19T09:24:37.671Z,25.80
2023-02-19T09:25:39.646Z,25.58
2023-02-19T09:26:41.668Z,26.58
2023-02-19T09:27:43.793Z,20.65
2023-02-19T09:28:46.495Z,21.00
2023-02-19T09:29:48.572Z,18.83
2023-02-19T09:30:50.705Z,19.88
2023-02-19T09:31:57.558Z,16.13
2023-02-19T09:32:59.604Z,17.33
2023-02-19T09:34:01.850Z,16.73
2023-02-19T09:35:03.941Z,17.83
2023-02-19T09:36:06.229Z,17.25
2023-02-19T09:37:10.910Z,17.88
2023-02-19T09:38:12.930Z,17.58
2023-02-19T09:39:15.179Z,18.50
2023-02-19T09:40:21.568Z,15.32
2023-02-19T09:41:46.491Z,16.30
2023-02-19T09:42:52.316Z,19.10
2023-02-19T09:43:54.541Z,17.48
2023-02-19T09:44:58.926Z,14.15
2023-02-19T09:46:17.474Z,16.35
2023-02-19T09:47:25.545Z,16.95
2023-02-19T09:48:27.583Z,16.80
2023-02-19T09:49:34.282Z,17.48
2023-02-19T09:50:48.724Z,16.40
2023-02-19T09:52:00.418Z,18.45
2023-02-19T09:53:06.017Z,20.08
2023-02-19T09:54:16.928Z,17.85
2023-02-19T09:55:42.637Z,17.77
2023-02-19T09:56:44.672Z,16.30
2023-02-19T09:57:48.513Z,18.85
2023-02-19T09:58:53.029Z,17.70
2023-02-19T10:00:08.580Z,18.05
2023-02-19T10:01:13.179Z,18.55
2023-02-19T10:02:20.770Z,18.87
2023-02-19T10:03:52.499Z,18.30
2023-02-19T10:04:54.785Z,15.63
2023-02-19T10:05:59.677Z,17.67
2023-02-19T10:07:03.817Z,18.90
2023-02-19T10:08:09.763Z,16.52
2023-02-19T10:09:17.853Z,19.50
2023-02-19T10:10:28.399Z,19.80
2023-02-19T10:11:30.385Z,16.65
2023-02-19T10:12:32.930Z,17.25
2023-02-19T10:13:54.433Z,16.37
2023-02-19T10:15:12.143Z,16.50
2023-02-19T10:16:18.168Z,16.52
2023-02-19T10:17:29.040Z,16.42
2023-02-19T10:18:39.777Z,18.23
2023-02-19T10:19:41.948Z,17.85
2023-02-19T10:20:44.070Z,17.90
2023-02-19T10:21:46.371Z,16.88
2023-02-19T10:22:49.166Z,20.63
2023-02-19T10:24:02.986Z,17.75
2023-02-19T10:25:05.261Z,18.17
2023-02-19T10:26:07.439Z,17.88
2023-02-19T10:27:14.465Z,16.88
2023-02-19T10:28:19.695Z,17.83
2023-02-19T10:29:22.128Z,21.30
2023-02-19T10:30:28.152Z,20.33
2023-02-19T10:31:33.843Z,16.98
2023-02-19T10:32:36.008Z,19.42
2023-02-19T10:33:56.207Z,16.92
2023-02-19T10:35:25.078Z,17.63
2023-02-19T10:36:37.503Z,18.03
2023-02-19T10:37:47.528Z,17.88
2023-02-19T10:38:49.681Z,14.88
2023-02-19T10:39:51.798Z,17.50
2023-02-19T10:41:04.356Z,16.35
2023-02-19T10:42:06.475Z,14.43
2023-02-19T10:43:25.732Z,15.13
2023-02-19T10:44:31.164Z,18.50
2023-02-19T10:45:53.144Z,12.77
2023-02-19T10:46:58.240Z,14.18
2023-02-19T10:48:00.549Z,13.77
2023-02-19T10:49:06.510Z,13.52
2023-02-19T10:50:26.570Z,12.75
2023-02-19T10:51:40.525Z,15.32
2023-02-19T10:52:42.593Z,14.88
2023-02-19T10:53:50.088Z,17.70
2023-02-19T10:54:57.740Z,15.35
2023-02-19T10:56:10.068Z,14.40
2023-02-19T10:57:30.533Z,16.77
2023-02-19T10:58:34.573Z,16.70
2023-02-19T10:59:36.571Z,17.27
2023-02-19T11:00:38.536Z,17.25
2023-02-19T11:02:00.753Z,17.27
2023-02-19T11:03:22.058Z,16.58
2023-02-19T11:04:25.652Z,16.42
2023-02-19T11:05:30.214Z,15.48
2023-02-19T11:06:34.871Z,13.82
2023-02-19T11:07:39.170Z,16.88
2023-02-19T11:08:47.052Z,14.90
2023-02-19T11:09:53.796Z,13.13
2023-02-19T11:10:56.096Z,14.03
2023-02-19T11:11:59.561Z,13.52
2023-02-19T11:13:07.027Z,14.90
2023-02-19T11:14:18.799Z,16.13
2023-02-19T11:15:23.693Z,17.52
2023-02-19T11:16:58.236Z,16.17
2023-02-19T11:18:12.614Z,17.27
2023-02-19T11:19:25.548Z,15.80
2023-02-19T11:20:29.067Z,18.48
2023-02-19T11:21:34.616Z,17.95
2023-02-19T11:22:42.008Z,17.50
2023-02-19T11:23:47.574Z,17.75
2023-02-19T11:24:54.538Z,16.58
2023-02-19T11:26:01.597Z,18.33
2023-02-19T11:27:07.369Z,15.15
2023-02-19T11:28:29.112Z,15.27
2023-02-19T11:29:34.957Z,14.30
2023-02-19T11:30:42.657Z,19.23
2023-02-19T11:31:44.773Z,16.42
2023-02-19T11:32:46.866Z,16.75
2023-02-19T11:33:58.060Z,16.33
2023-02-19T11:35:26.248Z,16.95
2023-02-19T11:36:30.707Z,15.65
2023-02-19T11:37:33.421Z,16.27
2023-02-19T11:38:35.589Z,17.73
2023-02-19T11:39:39.700Z,16.00
2023-02-19T11:40:58.143Z,17.83
2023-02-19T11:42:20.751Z,18.58
2023-02-19T11:43:49.783Z,16.35
2023-02-19T11:45:12.654Z,15.73
2023-02-19T11:46:29.402Z,15.07
2023-02-19T11:48:04.843Z,16.92
2023-02-19T11:49:35.843Z,18.05
2023-02-19T11:50:53.717Z,17.08
2023-02-19T11:52:27.201Z,18.10
2023-02-19T11:53:33.036Z,14.82
2023-02-19T11:55:04.903Z,14.90
2023-02-19T11:56:20.825Z,15.32
2023-02-19T11:57:34.894Z,18.08
2023-02-19T11:59:01.404Z,14.07
2023-02-19T12:00:27.256Z,15.13
2023-02-19T12:01:38.101Z,13.82
2023-02-19T12:03:27.885Z,13.25
2023-02-19T12:05:03.822Z,13.77
2023-02-19T12:06:30.260Z,13.40
2023-02-19T12:08:08.379Z,12.35
2023-02-19T12:09:37.434Z,13.25
2023-02-19T12:11:14.865Z,13.13
2023-02-19T12:12:16.781Z,12.25
2023-02-19T12:13:43.221Z,12.93
2023-02-19T12:15:00.629Z,14.50
2023-02-19T12:16:25.662Z,11.55
2023-02-19T12:17:46.276Z,12.63
2023-02-19T12:18:55.752Z,13.25
2023-02-19T12:20:13.230Z,12.75
2023-02-19T12:21:21.295Z,11.98
2023-02-19T12:22:33.282Z,13.25
2023-02-19T12:23:38.012Z,11.48
2023-02-19T12:25:19.177Z,14.07
2023-02-19T12:26:39.940Z,12.55
2023-02-19T12:28:09.743Z,13.30
2023-02-19T12:29:32.026Z,10.85
2023-02-19T12:30:58.488Z,11.80
2023-02-19T12:32:23.754Z,12.73
2023-02-19T12:33:53.588Z,12.00
2023-02-19T12:35:24.833Z,10.27
2023-02-19T12:36:47.133Z,10.55
2023-02-19T12:38:09.781Z,10.43
2023-02-19T12:39:14.922Z,13.27
2023-02-19T12:40:35.182Z,10.30
2023-02-19T12:42:10.582Z,12.40
2023-02-19T12:43:23.708Z,11.10
2023-02-19T12:44:43.616Z,10.27
2023-02-19T12:45:58.187Z,11.63
2023-02-19T12:47:01.655Z,10.93
2023-02-19T12:48:12.642Z,10.10
2023-02-19T12:49:36.555Z,12.40
2023-02-19T12:50:40.547Z,13.10
2023-02-19T12:52:28.498Z,10.18
2023-02-19T12:53:39.712Z,10.40
2023-02-19T12:54:44.352Z,10.43
2023-02-19T12:55:47.679Z,10.65
2023-02-19T12:57:15.608Z,11.65
2023-02-19T12:58:35.433Z,10.50
2023-02-19T13:00:00.231Z,10.10
2023-02-19T13:01:03.963Z,12.68
2023-02-19T13:02:06.072Z,10.10
2023-02-19T13:03:56.079Z,13.70
2023-02-19T13:05:20.597Z,13.68
2023-02-19T13:06:43.050Z,11.18
2023-02-19T13:07:57.016Z,11.20
2023-02-19T13:09:06.753Z,11.27
2023-02-19T13:10:26.850Z,10.88
2023-02-19T13:11:36.766Z,11.00
2023-02-19T13:12:43.389Z,12.23
2023-02-19T13:13:56.920Z,10.00
2023-02-19T13:15:03.131Z,12.32
2023-02-19T13:16:18.606Z,10.38
2023-02-19T13:17:30.215Z,12.82
2023-02-19T13:18:43.010Z,12.68
2023-02-19T13:19:48.790Z,15.07
2023-02-19T13:20:54.944Z,11.40
2023-02-19T13:22:35.083Z,9.82
2023-02-19T13:24:01.653Z,12.15
2023-02-19T13:25:05.987Z,13.00
2023-02-19T13:26:30.090Z,12.73
2023-02-19T13:27:52.197Z,13.98
2023-02-19T13:29:18.295Z,13.95
2023-02-19T13:30:43.476Z,12.18
2023-02-19T13:32:08.522Z,12.02
2023-02-19T13:33:36.742Z,11.50
2023-02-19T13:35:13.180Z,12.00
2023-02-19T13:36:20.373Z,11.40
2023-02-19T13:37:23.887Z,11.93
2023-02-19T13:38:26.516Z,12.95
2023-02-19T13:39:30.629Z,11.88
2023-02-19T13:40:35.836Z,12.00
2023-02-19T13:41:52.455Z,12.65
2023-02-19T13:42:57.136Z,11.27
2023-02-19T13:44:06.696Z,11.07
2023-02-19T13:45:23.337Z,10.70
2023-02-19T13:46:33.020Z,12.43
2023-02-19T13:47:59.379Z,11.40
2023-02-19T13:49:22.828Z,12.43
2023-02-19T13:50:33.996Z,12.13
2023-02-19T13:51:36.445Z,13.13
2023-02-19T13:52:39.799Z,13.23
2023-02-19T13:53:54.015Z,9.85
2023-02-19T13:55:33.276Z,9.65
2023-02-19T13:56:35.279Z,11.00
2023-02-19T13:57:39.247Z,12.07
2023-02-19T13:58:56.761Z,12.73
2023-02-19T14:00:00.170Z,11.07
2023-02-19T14:01:08.595Z,10.05
2023-02-19T14:02:14.367Z,14.07
2023-02-19T14:03:39.241Z,11.32
2023-02-19T14:04:43.434Z,14.50
2023-02-19T14:06:01.321Z,14.93
2023-02-19T14:07:03.294Z,12.43
2023-02-19T14:08:07.698Z,12.82
2023-02-19T14:09:44.004Z,13.23
2023-02-19T14:10:58.062Z,13.55
2023-02-19T14:12:18.030Z,12.45
2023-02-19T14:13:51.458Z,14.45
2023-02-19T14:14:57.667Z,13.38
2023-02-19T14:15:59.914Z,13.70
2023-02-19T14:17:12.644Z,13.52
2023-02-19T14:18:55.450Z,15.70
2023-02-19T14:20:09.254Z,14.70
2023-02-19T14:21:26.004Z,13.07
2023-02-19T14:22:46.374Z,13.53
2023-02-19T14:23:54.222Z,13.30
2023-02-19T14:24:57.944Z,14.52
2023-02-19T14:26:02.496Z,13.70
2023-02-19T14:27:04.717Z,13.20
2023-02-19T14:28:24.597Z,14.50
2023-02-19T14:29:29.196Z,14.45
2023-02-19T14:30:34.501Z,12.00
2023-02-19T14:31:40.376Z,11.82
2023-02-19T14:32:45.154Z,12.68
2023-02-19T14:33:50.692Z,12.97
2023-02-19T14:34:53.061Z,9.80
2023-02-19T14:36:32.544Z,13.15